Terminal Aerodrome Forecast
Issued by NWS

Home | Current Version | Previous Version | Text Only | Print | Product List | Glossary Off
Versions: 1 2 3 4 5 6 7 8 9 10 11 12 13 14 15

000
FTUS43 KMPX 291431 AAA
TAFRWF
TAF AMD
KRWF 291431Z 2915/3012 32008KT 4SM -SHRA BR BKN008 OVC015
     FM291700 34015G23KT 3SM -SHRA BR VCTS SCT012 OVC025CB
     FM292100 35014G22KT P6SM VCSH BKN025
     FM300000 34010G19KT P6SM SCT025 BKN080
     FM300600 34010KT P6SM SKC=

USA.gov is the U.S. government's official web portal to all federal, state and local government web resources and services.